sensor_id;sensor_type;location;lat;lon;timestamp;pressure;altitude;pressure_sealevel;temperature;humidity
31771;BME280;18343;50.152;8.182;2024-03-23T00:55:09;96592.38;;;8.30;100.00
31771;BME280;18343;50.152;8.182;2024-03-23T00:57:53;96590.31;;;8.26;100.00
31771;BME280;18343;50.152;8.182;2024-03-23T01:00:38;96585.53;;;8.21;100.00
31771;BME280;18343;50.152;8.182;2024-03-23T01:03:23;96584.31;;;8.17;100.00
31771;BME280;18343;50.152;8.182;2024-03-23T01:06:07;96577.88;;;8.11;100.00
31771;BME280;18343;50.152;8.182;2024-03-23T01:08:52;96580.31;;;8.06;100.00
31771;BME280;18343;50.152;8.182;2024-03-23T01:11:38;96576.63;;;8.07;100.00
31771;BME280;18343;50.152;8.182;2024-03-23T01:14:22;96574.97;;;8.06;100.00
31771;BME280;18343;50.152;8.182;2024-03-23T01:17:06;96566.94;;;8.06;100.00
31771;BME280;18343;50.152;8.182;2024-03-23T01:19:51;96556.22;;;8.06;100.00
31771;BME280;18343;50.152;8.182;2024-03-23T01:22:36;96564.06;;;8.08;100.00
31771;BME280;18343;50.152;8.182;2024-03-23T01:25:20;96555.16;;;8.01;100.00
31771;BME280;18343;50.152;8.182;2024-03-23T01:28:07;96560.63;;;7.79;100.00
31771;BME280;18343;50.152;8.182;2024-03-23T01:30:51;96556.22;;;7.65;100.00
31771;BME280;18343;50.152;8.182;2024-03-23T01:33:36;96547.13;;;7.60;100.00
31771;BME280;18343;50.152;8.182;2024-03-23T01:36:20;96545.03;;;7.55;100.00
31771;BME280;18343;50.152;8.182;2024-03-23T01:39:04;96549.34;;;7.56;100.00
31771;BME280;18343;50.152;8.182;2024-03-23T01:41:49;96546.72;;;7.63;100.00
31771;BME280;18343;50.152;8.182;2024-03-23T01:44:34;96539.53;;;7.63;100.00
31771;BME280;18343;50.152;8.182;2024-03-23T01:47:19;96533.16;;;7.64;100.00
31771;BME280;18343;50.152;8.182;2024-03-23T01:50:06;96523.47;;;7.63;100.00
31771;BME280;18343;50.152;8.182;2024-03-23T01:52:51;96513.16;;;7.60;100.00
31771;BME280;18343;50.152;8.182;2024-03-23T01:55:35;96512.13;;;7.61;100.00
31771;BME280;18343;50.152;8.182;2024-03-23T01:58:20;96508.84;;;7.59;100.00
31771;BME280;18343;50.152;8.182;2024-03-23T02:01:05;96502.06;;;7.63;100.00
31771;BME280;18343;50.152;8.182;2024-03-23T02:03:50;96496.94;;;7.68;100.00
31771;BME280;18343;50.152;8.182;2024-03-23T02:06:35;96502.53;;;7.73;100.00
31771;BME280;18343;50.152;8.182;2024-03-23T02:09:19;96493.28;;;7.76;100.00
31771;BME280;18343;50.152;8.182;2024-03-23T02:12:05;96496.78;;;7.76;100.00
31771;BME280;18343;50.152;8.182;2024-03-23T02:14:50;96495.34;;;7.80;100.00
31771;BME280;18343;50.152;8.182;2024-03-23T02:17:36;96493.94;;;7.85;100.00
31771;BME280;18343;50.152;8.182;2024-03-23T02:20:20;96496.63;;;7.85;100.00
31771;BME280;18343;50.152;8.182;2024-03-23T02:23:13;96488.81;;;7.90;100.00
31771;BME280;18343;50.152;8.182;2024-03-23T02:25:58;96481.00;;;7.95;100.00
31771;BME280;18343;50.152;8.182;2024-03-23T02:28:42;96482.25;;;7.99;100.00
31771;BME280;18343;50.152;8.182;2024-03-23T02:31:27;96479.81;;;8.04;100.00
31771;BME280;18343;50.152;8.182;2024-03-23T02:34:12;96476.34;;;8.10;100.00
31771;BME280;18343;50.152;8.182;2024-03-23T02:36:57;96472.22;;;8.14;100.00
31771;BME280;18343;50.152;8.182;2024-03-23T02:39:43;96457.81;;;8.15;100.00
31771;BME280;18343;50.152;8.182;2024-03-23T02:42:27;96449.78;;;8.15;100.00
31771;BME280;18343;50.152;8.182;2024-03-23T02:45:12;96442.78;;;8.14;100.00
31771;BME280;18343;50.152;8.182;2024-03-23T02:47:56;96443.41;;;8.16;100.00
31771;BME280;18343;50.152;8.182;2024-03-23T02:50:41;96449.78;;;8.15;100.00
31771;BME280;18343;50.152;8.182;2024-03-23T02:53:26;96450.59;;;8.09;100.00
31771;BME280;18343;50.152;8.182;2024-03-23T02:56:12;96456.72;;;8.03;100.00
31771;BME280;18343;50.152;8.182;2024-03-23T02:58:56;96465.56;;;7.97;100.00
31771;BME280;18343;50.152;8.182;2024-03-23T03:01:41;96466.19;;;7.92;100.00
31771;BME280;18343;50.152;8.182;2024-03-23T03:04:25;96447.22;;;7.87;100.00
31771;BME280;18343;50.152;8.182;2024-03-23T03:07:10;96443.13;;;7.91;100.00
31771;BME280;18343;50.152;8.182;2024-03-23T03:09:54;96435.50;;;7.95;100.00
31771;BME280;18343;50.152;8.182;2024-03-23T03:12:40;96454.88;;;8.03;100.00
31771;BME280;18343;50.152;8.182;2024-03-23T03:15:25;96436.75;;;7.99;100.00
31771;BME280;18343;50.152;8.182;2024-03-23T03:18:09;96431.63;;;8.04;100.00
31771;BME280;18343;50.152;8.182;2024-03-23T03:20:54;96435.50;;;8.01;100.00
31771;BME280;18343;50.152;8.182;2024-03-23T03:23:40;96419.69;;;8.06;100.00
31771;BME280;18343;50.152;8.182;2024-03-23T03:26:24;96422.59;;;8.11;100.00
31771;BME280;18343;50.152;8.182;2024-03-23T03:29:11;96442.34;;;8.10;100.00
31771;BME280;18343;50.152;8.182;2024-03-23T03:31:55;96451.00;;;8.12;100.00
31771;BME280;18343;50.152;8.182;2024-03-23T03:34:40;96462.25;;;7.95;100.00
31771;BME280;18343;50.152;8.182;2024-03-23T03:37:25;96454.72;;;8.11;100.00
31771;BME280;18343;50.152;8.182;2024-03-23T03:40:10;96457.94;;;7.94;100.00
31771;BME280;18343;50.152;8.182;2024-03-23T03:42:55;96463.72;;;7.91;100.00
31771;BME280;18343;50.152;8.182;2024-03-23T03:45:41;96474.56;;;7.82;100.00
31771;BME280;18343;50.152;8.182;2024-03-23T03:48:26;96488.78;;;7.83;100.00
31771;BME280;18343;50.152;8.182;2024-03-23T03:51:11;96505.97;;;7.61;100.00
31771;BME280;18343;50.152;8.182;2024-03-23T03:53:56;96497.09;;;7.60;100.00
31771;BME280;18343;50.152;8.182;2024-03-23T03:56:41;96507.41;;;7.63;100.00
31771;BME280;18343;50.152;8.182;2024-03-23T03:59:26;96508.59;;;7.26;100.00
31771;BME280;18343;50.152;8.182;2024-03-23T04:02:12;96521.50;;;6.95;100.00
31771;BME280;18343;50.152;8.182;2024-03-23T04:04:57;96519.16;;;7.06;100.00
31771;BME280;18343;50.152;8.182;2024-03-23T04:07:42;96520.66;;;7.16;100.00
31771;BME280;18343;50.152;8.182;2024-03-23T04:10:26;96507.31;;;6.94;100.00
31771;BME280;18343;50.152;8.182;2024-03-23T04:13:11;96495.88;;;7.28;100.00
31771;BME280;18343;50.152;8.182;2024-03-23T04:15:55;96500.63;;;7.05;100.00
31771;BME280;18343;50.152;8.182;2024-03-23T04:18:41;96491.34;;;7.29;100.00
31771;BME280;18343;50.152;8.182;2024-03-23T04:21:26;96481.34;;;7.44;100.00
31771;BME280;18343;50.152;8.182;2024-03-23T04:24:10;96488.16;;;7.46;100.00
31771;BME280;18343;50.152;8.182;2024-03-23T04:26:55;96497.22;;;7.45;100.00
31771;BME280;18343;50.152;8.182;2024-03-23T04:29:40;96496.25;;;7.53;100.00
31771;BME280;18343;50.152;8.182;2024-03-23T04:32:24;96504.06;;;7.55;100.00
31771;BME280;18343;50.152;8.182;2024-03-23T04:35:11;96507.28;;;7.43;100.00
31771;BME280;18343;50.152;8.182;2024-03-23T04:37:55;96518.38;;;7.40;100.00
31771;BME280;18343;50.152;8.182;2024-03-23T04:40:40;96509.13;;;7.43;100.00
31771;BME280;18343;50.152;8.182;2024-03-23T04:43:25;96513.13;;;7.54;100.00
31771;BME280;18343;50.152;8.182;2024-03-23T04:46:09;96516.19;;;7.51;100.00
31771;BME280;18343;50.152;8.182;2024-03-23T04:48:53;96503.81;;;7.50;100.00
31771;BME280;18343;50.152;8.182;2024-03-23T04:51:39;96507.72;;;7.47;100.00
31771;BME280;18343;50.152;8.182;2024-03-23T04:54:24;96506.56;;;7.28;100.00
31771;BME280;18343;50.152;8.182;2024-03-23T04:57:08;96504.41;;;7.17;100.00
31771;BME280;18343;50.152;8.182;2024-03-23T04:59:53;96529.84;;;7.06;100.00
31771;BME280;18343;50.152;8.182;2024-03-23T05:02:37;96529.38;;;7.24;100.00
31771;BME280;18343;50.152;8.182;2024-03-23T05:05:22;96530.31;;;7.17;100.00
31771;BME280;18343;50.152;8.182;2024-03-23T05:08:08;96538.97;;;7.19;100.00
31771;BME280;18343;50.152;8.182;2024-03-23T05:10:53;96553.88;;;7.28;100.00
31771;BME280;18343;50.152;8.182;2024-03-23T05:13:38;96551.47;;;6.90;100.00
31771;BME280;18343;50.152;8.182;2024-03-23T05:16:22;96564.72;;;6.98;100.00
31771;BME280;18343;50.152;8.182;2024-03-23T05:19:07;96582.41;;;6.99;100.00
31771;BME280;18343;50.152;8.182;2024-03-23T05:21:52;96592.50;;;6.61;100.00
31771;BME280;18343;50.152;8.182;2024-03-23T05:24:38;96585.25;;;6.55;100.00
31771;BME280;18343;50.152;8.182;2024-03-23T05:27:22;96592.50;;;6.10;100.00
31771;BME280;18343;50.152;8.182;2024-03-23T05:30:08;96589.25;;;6.30;100.00
31771;BME280;18343;50.152;8.182;2024-03-23T05:32:52;96587.13;;;6.40;100.00
31771;BME280;18343;50.152;8.182;2024-03-23T05:35:37;96582.00;;;6.24;100.00
31771;BME280;18343;50.152;8.182;2024-03-23T05:38:21;96618.09;;;6.20;100.00
31771;BME280;18343;50.152;8.182;2024-03-23T05:41:07;96617.66;;;6.01;100.00
31771;BME280;18343;50.152;8.182;2024-03-23T05:43:51;96623.25;;;5.92;100.00
31771;BME280;18343;50.152;8.182;2024-03-23T05:46:36;96647.09;;;5.56;100.00
31771;BME280;18343;50.152;8.182;2024-03-23T05:49:20;96654.25;;;5.55;100.00
31771;BME280;18343;50.152;8.182;2024-03-23T05:52:05;96661.53;;;5.99;100.00
31771;BME280;18343;50.152;8.182;2024-03-23T05:54:50;96645.81;;;6.19;100.00
31771;BME280;18343;50.152;8.182;2024-03-23T05:57:35;96643.22;;;6.25;100.00
31771;BME280;18343;50.152;8.182;2024-03-23T06:00:20;96632.44;;;6.04;100.00
31771;BME280;18343;50.152;8.182;2024-03-23T06:03:05;96627.09;;;6.04;100.00
31771;BME280;18343;50.152;8.182;2024-03-23T06:05:49;96598.47;;;5.83;100.00
31771;BME280;18343;50.152;8.182;2024-03-23T06:08:34;96588.88;;;5.59;100.00
31771;BME280;18343;50.152;8.182;2024-03-23T06:11:18;96610.25;;;5.74;100.00
31771;BME280;18343;50.152;8.182;2024-03-23T06:14:04;96617.41;;;5.88;100.00
31771;BME280;18343;50.152;8.182;2024-03-23T06:16:48;96617.97;;;5.84;100.00
31771;BME280;18343;50.152;8.182;2024-03-23T06:19:33;96655.09;;;5.56;100.00
31771;BME280;18343;50.152;8.182;2024-03-23T06:22:17;96669.41;;;5.17;100.00
31771;BME280;18343;50.152;8.182;2024-03-23T06:25:02;96685.63;;;5.07;100.00
31771;BME280;18343;50.152;8.182;2024-03-23T06:27:47;96695.50;;;5.22;100.00
31771;BME280;18343;50.152;8.182;2024-03-23T06:30:33;96703.31;;;5.23;100.00
31771;BME280;18343;50.152;8.182;2024-03-23T06:33:18;96703.13;;;5.48;100.00
31771;BME280;18343;50.152;8.182;2024-03-23T06:36:06;96711.44;;;5.53;100.00
31771;BME280;18343;50.152;8.182;2024-03-23T06:38:50;96725.03;;;5.43;100.00
31771;BME280;18343;50.152;8.182;2024-03-23T06:41:35;96715.59;;;5.55;100.00
31771;BME280;18343;50.152;8.182;2024-03-23T06:44:20;96711.22;;;5.62;100.00
31771;BME280;18343;50.152;8.182;2024-03-23T06:47:06;96717.31;;;5.71;100.00
31771;BME280;18343;50.152;8.182;2024-03-23T06:49:53;96718.03;;;5.65;100.00
31771;BME280;18343;50.152;8.182;2024-03-23T06:52:37;96713.16;;;5.91;100.00
31771;BME280;18343;50.152;8.182;2024-03-23T06:55:22;96717.47;;;6.07;100.00
31771;BME280;18343;50.152;8.182;2024-03-23T06:58:07;96725.53;;;6.22;100.00
31771;BME280;18343;50.152;8.182;2024-03-23T07:00:52;96739.84;;;6.06;100.00
31771;BME280;18343;50.152;8.182;2024-03-23T07:03:38;96748.66;;;5.92;100.00
31771;BME280;18343;50.152;8.182;2024-03-23T07:06:23;96750.09;;;6.17;100.00
31771;BME280;18343;50.152;8.182;2024-03-23T07:09:07;96759.13;;;6.31;100.00
31771;BME280;18343;50.152;8.182;2024-03-23T07:11:53;96757.03;;;5.89;100.00
31771;BME280;18343;50.152;8.182;2024-03-23T07:14:38;96760.84;;;6.09;100.00
31771;BME280;18343;50.152;8.182;2024-03-23T07:17:23;96770.91;;;6.36;100.00
31771;BME280;18343;50.152;8.182;2024-03-23T07:20:10;96780.59;;;6.37;100.00
31771;BME280;18343;50.152;8.182;2024-03-23T07:22:55;96782.16;;;6.47;100.00
31771;BME280;18343;50.152;8.182;2024-03-23T07:25:39;96788.88;;;6.57;100.00
31771;BME280;18343;50.152;8.182;2024-03-23T07:28:24;96797.72;;;6.58;100.00
31771;BME280;18343;50.152;8.182;2024-03-23T07:31:10;96802.34;;;6.64;100.00
31771;BME280;18343;50.152;8.182;2024-03-23T07:33:55;96795.34;;;6.63;100.00
31771;BME280;18343;50.152;8.182;2024-03-23T07:36:41;96799.84;;;6.48;100.00
31771;BME280;18343;50.152;8.182;2024-03-23T07:39:31;96810.91;;;6.59;100.00
31771;BME280;18343;50.152;8.182;2024-03-23T07:42:17;96811.56;;;6.09;100.00
31771;BME280;18343;50.152;8.182;2024-03-23T07:45:01;96814.56;;;6.43;100.00
31771;BME280;18343;50.152;8.182;2024-03-23T07:47:46;96811.84;;;6.66;100.00
31771;BME280;18343;50.152;8.182;2024-03-23T07:50:30;96817.25;;;6.88;100.00
31771;BME280;18343;50.152;8.182;2024-03-23T07:53:17;96827.13;;;6.72;100.00
31771;BME280;18343;50.152;8.182;2024-03-23T07:56:06;96825.44;;;6.57;100.00
31771;BME280;18343;50.152;8.182;2024-03-23T07:58:51;96836.53;;;6.16;100.00
31771;BME280;18343;50.152;8.182;2024-03-23T08:01:36;96838.84;;;6.34;100.00
31771;BME280;18343;50.152;8.182;2024-03-23T08:04:21;96836.72;;;6.29;100.00
31771;BME280;18343;50.152;8.182;2024-03-23T08:07:05;96839.03;;;6.32;100.00
31771;BME280;18343;50.152;8.182;2024-03-23T08:09:51;96834.72;;;6.31;100.00
31771;BME280;18343;50.152;8.182;2024-03-23T08:12:36;96834.63;;;6.25;100.00
31771;BME280;18343;50.152;8.182;2024-03-23T08:15:20;96840.63;;;6.04;100.00
31771;BME280;18343;50.152;8.182;2024-03-23T08:18:05;96838.19;;;6.17;100.00
31771;BME280;18343;50.152;8.182;2024-03-23T08:20:56;96827.63;;;6.38;100.00
31771;BME280;18343;50.152;8.182;2024-03-23T08:23:41;96831.91;;;6.62;100.00
31771;BME280;18343;50.152;8.182;2024-03-23T08:26:27;96830.81;;;7.01;100.00
31771;BME280;18343;50.152;8.182;2024-03-23T08:29:11;96826.47;;;7.14;100.00
31771;BME280;18343;50.152;8.182;2024-03-23T08:31:56;96828.97;;;7.01;100.00
31771;BME280;18343;50.152;8.182;2024-03-23T08:34:41;96829.91;;;6.94;100.00
31771;BME280;18343;50.152;8.182;2024-03-23T08:37:25;96840.19;;;7.11;100.00
31771;BME280;18343;50.152;8.182;2024-03-23T08:40:11;96844.06;;;7.38;100.00
31771;BME280;18343;50.152;8.182;2024-03-23T08:42:56;96857.25;;;7.25;100.00
31771;BME280;18343;50.152;8.182;2024-03-23T08:45:41;96849.69;;;6.85;100.00
31771;BME280;18343;50.152;8.182;2024-03-23T08:48:25;96850.00;;;7.04;100.00
31771;BME280;18343;50.152;8.182;2024-03-23T08:51:11;96856.25;;;7.26;100.00
31771;BME280;18343;50.152;8.182;2024-03-23T08:53:56;96854.88;;;7.66;100.00
31771;BME280;18343;50.152;8.182;2024-03-23T08:56:40;96845.69;;;7.54;100.00
31771;BME280;18343;50.152;8.182;2024-03-23T08:59:26;96839.53;;;7.96;100.00
31771;BME280;18343;50.152;8.182;2024-03-23T09:02:11;96847.72;;;7.88;100.00
31771;BME280;18343;50.152;8.182;2024-03-23T09:04:56;96850.75;;;7.49;100.00
31771;BME280;18343;50.152;8.182;2024-03-23T09:07:40;96850.09;;;7.62;100.00
31771;BME280;18343;50.152;8.182;2024-03-23T09:10:25;96855.84;;;7.44;100.00
31771;BME280;18343;50.152;8.182;2024-03-23T09:13:09;96856.50;;;7.82;100.00
31771;BME280;18343;50.152;8.182;2024-03-23T09:15:55;96854.72;;;8.10;100.00
31771;BME280;18343;50.152;8.182;2024-03-23T09:18:40;96854.44;;;8.27;100.00
31771;BME280;18343;50.152;8.182;2024-03-23T09:21:24;96863.69;;;8.24;100.00
31771;BME280;18343;50.152;8.182;2024-03-23T09:24:09;96860.47;;;8.07;100.00
31771;BME280;18343;50.152;8.182;2024-03-23T09:26:53;96864.59;;;8.10;100.00
31771;BME280;18343;50.152;8.182;2024-03-23T09:29:38;96862.56;;;7.91;100.00
31771;BME280;18343;50.152;8.182;2024-03-23T09:32:25;96858.72;;;8.00;100.00
31771;BME280;18343;50.152;8.182;2024-03-23T09:35:09;96866.00;;;8.06;100.00
31771;BME280;18343;50.152;8.182;2024-03-23T09:37:54;96866.50;;;7.95;100.00
31771;BME280;18343;50.152;8.182;2024-03-23T09:40:41;96859.31;;;8.17;100.00
31771;BME280;18343;50.152;8.182;2024-03-23T09:43:26;96871.66;;;8.32;100.00
31771;BME280;18343;50.152;8.182;2024-03-23T09:46:11;96855.00;;;8.65;100.00
31771;BME280;18343;50.152;8.182;2024-03-23T09:48:57;96863.97;;;8.29;100.00
31771;BME280;18343;50.152;8.182;2024-03-23T09:51:42;96872.25;;;8.56;100.00
31771;BME280;18343;50.152;8.182;2024-03-23T09:54:27;96866.44;;;8.52;100.00
31771;BME280;18343;50.152;8.182;2024-03-23T09:57:11;96864.16;;;8.49;100.00
31771;BME280;18343;50.152;8.182;2024-03-23T09:59:56;96872.63;;;8.53;100.00
31771;BME280;18343;50.152;8.182;2024-03-23T10:02:42;96866.63;;;8.72;100.00
31771;BME280;18343;50.152;8.182;2024-03-23T10:05:29;96873.78;;;8.65;100.00
31771;BME280;18343;50.152;8.182;2024-03-23T10:08:18;96872.53;;;8.39;100.00
31771;BME280;18343;50.152;8.182;2024-03-23T10:11:14;96874.84;;;8.42;100.00
31771;BME280;18343;50.152;8.182;2024-03-23T10:13:58;96877.13;;;8.45;100.00
31771;BME280;18343;50.152;8.182;2024-03-23T10:16:43;96897.47;;;8.40;100.00
31771;BME280;18343;50.152;8.182;2024-03-23T10:19:31;96907.06;;;7.92;100.00
31771;BME280;18343;50.152;8.182;2024-03-23T10:22:19;96908.31;;;7.60;100.00
31771;BME280;18343;50.152;8.182;2024-03-23T10:25:08;96908.78;;;7.63;100.00
31771;BME280;18343;50.152;8.182;2024-03-23T10:27:59;96908.19;;;7.68;100.00
31771;BME280;18343;50.152;8.182;2024-03-23T10:30:44;96903.72;;;7.54;100.00
31771;BME280;18343;50.152;8.182;2024-03-23T10:33:29;96906.16;;;7.70;100.00
31771;BME280;18343;50.152;8.182;2024-03-23T10:36:14;96900.03;;;7.91;100.00
31771;BME280;18343;50.152;8.182;2024-03-23T10:39:01;96897.94;;;8.07;100.00
31771;BME280;18343;50.152;8.182;2024-03-23T10:41:47;96893.81;;;8.05;100.00
31771;BME280;18343;50.152;8.182;2024-03-23T10:44:34;96894.72;;;7.76;100.00
31771;BME280;18343;50.152;8.182;2024-03-23T10:47:19;96895.66;;;7.68;100.00
31771;BME280;18343;50.152;8.182;2024-03-23T10:50:05;96901.53;;;7.78;100.00
31771;BME280;18343;50.152;8.182;2024-03-23T10:52:52;96898.13;;;7.70;100.00
31771;BME280;18343;50.152;8.182;2024-03-23T10:55:39;96892.72;;;7.63;100.00
31771;BME280;18343;50.152;8.182;2024-03-23T10:58:31;96905.78;;;7.88;100.00
31771;BME280;18343;50.152;8.182;2024-03-23T11:01:17;96905.94;;;7.65;100.00
31771;BME280;18343;50.152;8.182;2024-03-23T11:04:02;96904.72;;;7.53;100.00
31771;BME280;18343;50.152;8.182;2024-03-23T11:06:46;96900.56;;;7.50;100.00
31771;BME280;18343;50.152;8.182;2024-03-23T11:09:41;96898.91;;;7.64;100.00
31771;BME280;18343;50.152;8.182;2024-03-23T11:12:31;96891.75;;;7.86;100.00
31771;BME280;18343;50.152;8.182;2024-03-23T11:15:16;96880.91;;;7.94;100.00
31771;BME280;18343;50.152;8.182;2024-03-23T11:18:04;96882.06;;;8.06;100.00
31771;BME280;18343;50.152;8.182;2024-03-23T11:20:49;96887.69;;;8.11;100.00
31771;BME280;18343;50.152;8.182;2024-03-23T11:23:33;96880.03;;;8.29;100.00
31771;BME280;18343;50.152;8.182;2024-03-23T11:26:17;96877.25;;;8.37;100.00
31771;BME280;18343;50.152;8.182;2024-03-23T11:29:10;96880.69;;;8.53;100.00
31771;BME280;18343;50.152;8.182;2024-03-23T11:31:55;96864.25;;;8.90;100.00
31771;BME280;18343;50.152;8.182;2024-03-23T11:34:40;96864.50;;;9.30;100.00
31771;BME280;18343;50.152;8.182;2024-03-23T11:37:24;96849.75;;;9.54;100.00
31771;BME280;18343;50.152;8.182;2024-03-23T11:40:18;96849.75;;;9.60;100.00
31771;BME280;18343;50.152;8.182;2024-03-23T11:43:04;96848.22;;;9.92;100.00
31771;BME280;18343;50.152;8.182;2024-03-23T11:45:52;96836.72;;;10.25;100.00
31771;BME280;18343;50.152;8.182;2024-03-23T11:48:37;96838.19;;;10.54;100.00
31771;BME280;18343;50.152;8.182;2024-03-23T11:51:21;96834.47;;;10.41;100.00
31771;BME280;18343;50.152;8.182;2024-03-23T11:54:08;96821.03;;;10.28;100.00
31771;BME280;18343;50.152;8.182;2024-03-23T11:56:57;96822.25;;;10.19;100.00
31771;BME280;18343;50.152;8.182;2024-03-23T11:59:42;96828.25;;;10.21;100.00
31771;BME280;18343;50.152;8.182;2024-03-23T12:02:28;96818.34;;;10.55;100.00
31771;BME280;18343;50.152;8.182;2024-03-23T12:05:17;96807.56;;;10.81;100.00
31771;BME280;18343;50.152;8.182;2024-03-23T12:08:19;96811.63;;;11.16;100.00
31771;BME280;18343;50.152;8.182;2024-03-23T12:11:09;96806.88;;;10.99;100.00
31771;BME280;18343;50.152;8.182;2024-03-23T12:14:00;96807.56;;;10.88;100.00
31771;BME280;18343;50.152;8.182;2024-03-23T12:16:44;96798.88;;;10.72;100.00
31771;BME280;18343;50.152;8.182;2024-03-23T12:19:30;96795.38;;;10.65;100.00
31771;BME280;18343;50.152;8.182;2024-03-23T12:22:14;96786.69;;;10.63;100.00
31771;BME280;18343;50.152;8.182;2024-03-23T12:24:59;96780.66;;;10.81;100.00
31771;BME280;18343;50.152;8.182;2024-03-23T12:27:44;96779.00;;;10.80;100.00
31771;BME280;18343;50.152;8.182;2024-03-23T12:30:28;96787.50;;;10.70;100.00
31771;BME280;18343;50.152;8.182;2024-03-23T12:33:13;96796.41;;;10.44;100.00
31771;BME280;18343;50.152;8.182;2024-03-23T12:35:59;96797.88;;;10.21;100.00
31771;BME280;18343;50.152;8.182;2024-03-23T12:38:44;96854.03;;;9.41;100.00
31771;BME280;18343;50.152;8.182;2024-03-23T12:41:28;96854.97;;;8.58;100.00
31771;BME280;18343;50.152;8.182;2024-03-23T12:44:13;96907.44;;;7.74;100.00
31771;BME280;18343;50.152;8.182;2024-03-23T12:46:57;96911.28;;;7.50;100.00
31771;BME280;18343;50.152;8.182;2024-03-23T12:49:41;96906.94;;;7.64;100.00
31771;BME280;18343;50.152;8.182;2024-03-23T12:52:27;96912.59;;;7.25;100.00
31771;BME280;18343;50.152;8.182;2024-03-23T12:55:12;96906.22;;;6.96;100.00
31771;BME280;18343;50.152;8.182;2024-03-23T12:57:57;96902.72;;;7.25;100.00
31771;BME280;18343;50.152;8.182;2024-03-23T13:00:41;96886.78;;;7.32;100.00
31771;BME280;18343;50.152;8.182;2024-03-23T13:03:26;96891.91;;;7.48;100.00
31771;BME280;18343;50.152;8.182;2024-03-23T13:06:11;96894.22;;;7.66;100.00
31771;BME280;18343;50.152;8.182;2024-03-23T13:08:57;96902.44;;;7.86;100.00
31771;BME280;18343;50.152;8.182;2024-03-23T13:11:41;96914.59;;;8.03;100.00
31771;BME280;18343;50.152;8.182;2024-03-23T13:14:26;96908.28;;;7.74;100.00
31771;BME280;18343;50.152;8.182;2024-03-23T13:17:10;96886.84;;;7.53;100.00
31771;BME280;18343;50.152;8.182;2024-03-23T13:19:55;96864.06;;;7.13;100.00
31771;BME280;18343;50.152;8.182;2024-03-23T13:22:40;96852.50;;;7.57;100.00
31771;BME280;18343;50.152;8.182;2024-03-23T13:25:25;96849.41;;;7.96;100.00
31771;BME280;18343;50.152;8.182;2024-03-23T13:28:12;96842.50;;;8.44;100.00
31771;BME280;18343;50.152;8.182;2024-03-23T13:30:57;96842.31;;;8.45;100.00
31771;BME280;18343;50.152;8.182;2024-03-23T13:33:41;96852.72;;;7.98;100.00
31771;BME280;18343;50.152;8.182;2024-03-23T13:36:25;96853.63;;;8.26;100.00
31771;BME280;18343;50.152;8.182;2024-03-23T13:39:10;96847.78;;;8.37;100.00
31771;BME280;18343;50.152;8.182;2024-03-23T13:41:56;96851.31;;;8.23;100.00
31771;BME280;18343;50.152;8.182;2024-03-23T13:44:41;96857.78;;;7.86;100.00
31771;BME280;18343;50.152;8.182;2024-03-23T13:47:25;96861.47;;;7.49;100.00
31771;BME280;18343;50.152;8.182;2024-03-23T13:50:10;96860.53;;;7.42;100.00
31771;BME280;18343;50.152;8.182;2024-03-23T13:52:54;96856.25;;;7.26;100.00
31771;BME280;18343;50.152;8.182;2024-03-23T13:55:46;96850.94;;;7.47;100.00
31771;BME280;18343;50.152;8.182;2024-03-23T13:58:32;96847.25;;;7.63;100.00
31771;BME280;18343;50.152;8.182;2024-03-23T14:01:17;96831.28;;;7.91;100.00
31771;BME280;18343;50.152;8.182;2024-03-23T14:04:02;96830.97;;;8.29;100.00
31771;BME280;18343;50.152;8.182;2024-03-23T14:06:47;96825.88;;;8.55;100.00
31771;BME280;18343;50.152;8.182;2024-03-23T14:09:31;96810.03;;;8.60;100.00
31771;BME280;18343;50.152;8.182;2024-03-23T14:12:16;96802.50;;;8.42;100.00
31771;BME280;18343;50.152;8.182;2024-03-23T14:15:05;96805.88;;;8.86;100.00
31771;BME280;18343;50.152;8.182;2024-03-23T14:17:49;96811.34;;;9.05;100.00
31771;BME280;18343;50.152;8.182;2024-03-23T14:20:34;96804.72;;;9.01;100.00
31771;BME280;18343;50.152;8.182;2024-03-23T14:23:19;96804.81;;;9.21;100.00
31771;BME280;18343;50.152;8.182;2024-03-23T14:26:03;96815.44;;;9.42;100.00
31771;BME280;18343;50.152;8.182;2024-03-23T14:28:49;96808.13;;;9.77;100.00
31771;BME280;18343;50.152;8.182;2024-03-23T14:31:35;96801.94;;;9.97;100.00
31771;BME280;18343;50.152;8.182;2024-03-23T14:34:19;96799.25;;;9.97;100.00
31771;BME280;18343;50.152;8.182;2024-03-23T14:37:04;96796.78;;;10.02;100.00
31771;BME280;18343;50.152;8.182;2024-03-23T14:39:49;96798.25;;;10.04;100.00
31771;BME280;18343;50.152;8.182;2024-03-23T14:42:33;96792.47;;;10.07;100.00
31771;BME280;18343;50.152;8.182;2024-03-23T14:45:18;96788.56;;;10.23;100.00
31771;BME280;18343;50.152;8.182;2024-03-23T14:48:05;96794.13;;;10.48;100.00
31771;BME280;18343;50.152;8.182;2024-03-23T14:50:56;96782.97;;;10.58;100.00
31771;BME280;18343;50.152;8.182;2024-03-23T14:53:45;96782.16;;;10.64;100.00
31771;BME280;18343;50.152;8.182;2024-03-23T14:56:30;96788.97;;;10.53;100.00
31771;BME280;18343;50.152;8.182;2024-03-23T14:59:14;96782.72;;;9.93;100.00
31771;BME280;18343;50.152;8.182;2024-03-23T15:01:58;96797.34;;;9.71;100.00
31771;BME280;18343;50.152;8.182;2024-03-23T15:04:44;96844.00;;;8.53;100.00
31771;BME280;18343;50.152;8.182;2024-03-23T15:07:29;96878.56;;;7.33;100.00
31771;BME280;18343;50.152;8.182;2024-03-23T15:10:15;96876.81;;;6.96;100.00
31771;BME280;18343;50.152;8.182;2024-03-23T15:13:00;96868.06;;;6.35;100.00
31771;BME280;18343;50.152;8.182;2024-03-23T15:15:45;96880.75;;;5.88;100.00
31771;BME280;18343;50.152;8.182;2024-03-23T15:18:30;96878.59;;;5.83;100.00
31771;BME280;18343;50.152;8.182;2024-03-23T15:21:18;96878.25;;;5.24;100.00
31771;BME280;18343;50.152;8.182;2024-03-23T15:24:04;96884.34;;;4.94;100.00
31771;BME280;18343;50.152;8.182;2024-03-23T15:26:49;96856.94;;;5.55;100.00
31771;BME280;18343;50.152;8.182;2024-03-23T15:29:33;96844.91;;;5.59;100.00